Portada
METAR-TAF:

METAR-TAF

Aeroports :

Perm, Rússia

latitud: 58-00N, longitud: 056-15E, altitud: 170 m

Observació

L'informe es va fer fa 24 minuts, a les 19:30 UTC
Vent 8 kt del Sud-Oest
Temperatura 11°C
Humitat 94%
Pressió 1017 hPa
Visibilitat 10 km o més
sense núvols per sota de 1500 mi sense presència de cumulonimbus.

METAR: USPP 241930Z 23004MPS CAVOK 11/10 Q1017 R21/090060 NOSIG RMK QFE752

Hora: 00:54 (19:54 UTC)

Pronòstic

L'informe es va fer fa 2 hores i 56 minuts, a les 16:58 UTC
Pronòstic vàlid del 24 a les 18 UTC al 25 a les 18 UTC
Vent 6 kt del Sud-Oest amb ràfegues de 23 kt
Visibilitat 10 km o més
Cel ennuvolat a una alçada de 1100 ft, Cumulonimbus.
xàfecs de pluja
Temporalment
l' 24 a les 18 UTC al 25 a les 18 UTC
Visibilitat: 3100 m
tempesta, pluja

TAF: USPP 241658Z 2418/2518 22003G12MPS 9999 -SHRA BKN011CB TEMPO 2418/2518 3100 -TSRA

Observacions i pronòstics meteorològics de més de 4000 aeroports (METAR i TAF).

Les estacions disponibles són els punts grocs i vermells al mapa.

Posi el ratolí al punt desitjat per veure el nom de l'estació.

Feu clic per veure les observacions i els pronòstics meteorològics.

Per canviar el mapa: feu clic els botons verds amb una creu de color negre per apropar; al botó verd amb un guió per allunyar la imatge; o en les fletxes verdes per a mapes adjacents.


METAR-TAF: